Time;durP1;ratioP1;P1;durP2;ratioP2;P2;SDS_P1;SDS_P2;PMS_P1;PMS_P2;Temp;Humidity;BMP_temperature;BMP_pressure;BME280_temperature;BME280_humidity;BME280_pressure;Samples;Min_cycle;Max_cycle;Signal;HPM_P1;HPM_P2
2024/04/21 00:06:50;;;;;;;41.80;16.10;;;;;;;1.92;76.52;100697.77;666274;1260;139694;-79
2024/04/21 00:21:53;;;;;;;19.40;8.70;;;;;;;1.75;77.25;100701.29;666761;1270;139687;-80
2024/04/21 00:36:56;;;;;;;21.80;8.80;;;;;;;1.65;77.37;100699.67;666983;1276;139293;-80
2024/04/21 00:52:02;;;;;;;38.40;18.30;;;;;;;1.47;77.38;100705.63;667280;1261;139562;-81
2024/04/21 01:07:05;;;;;;;43.30;19.30;;;;;;;1.32;77.30;100714.70;665914;1268;139337;-80
2024/04/21 01:22:08;;;;;;;31.30;14.40;;;;;;;1.20;77.18;100717.09;667203;1264;139810;-81
2024/04/21 01:37:11;;;;;;;21.90;9.20;;;;;;;1.09;77.07;100723.77;665909;1278;139251;-80
2024/04/21 01:53:52;;;;;;;18.80;8.20;;;;;;;1.13;77.70;100726.52;648727;1299;545017;-81
2024/04/21 02:08:55;;;;;;;20.70;10.80;;;;;;;0.98;77.36;100742.47;661719;1269;139151;-78
2024/04/21 02:23:58;;;;;;;20.20;9.10;;;;;;;1.27;78.50;100746.09;664994;1269;139083;-79
2024/04/21 02:39:01;;;;;;;31.70;15.20;;;;;;;1.67;79.18;100749.41;665137;1266;139926;-79
2024/04/21 02:54:05;;;;;;;21.50;12.10;;;;;;;1.99;79.28;100752.14;666703;1267;139585;-79
2024/04/21 03:09:08;;;;;;;19.50;9.20;;;;;;;1.99;80.04;100748.19;665379;1279;138458;-80
2024/04/21 03:24:11;;;;;;;19.60;13.00;;;;;;;2.21;80.50;100745.66;666182;1274;139072;-80
2024/04/21 03:39:15;;;;;;;63.00;25.50;;;;;;;2.35;80.29;100746.75;664914;1267;138963;-79
2024/04/21 03:54:18;;;;;;;19.60;12.60;;;;;;;2.58;80.73;100740.14;666696;1267;139184;-79
2024/04/21 04:09:20;;;;;;;16.70;10.00;;;;;;;2.87;80.16;100750.20;666168;1262;139111;-79
2024/04/21 04:24:23;;;;;;;16.00;10.40;;;;;;;2.95;79.73;100770.02;666840;1266;140400;-81
2024/04/21 04:39:26;;;;;;;18.70;12.40;;;;;;;3.18;80.00;100778.05;666284;1267;139386;-78
2024/04/21 04:54:31;;;;;;;18.80;10.30;;;;;;;3.69;80.19;100774.45;666873;1265;139566;-80
2024/04/21 05:09:34;;;;;;;16.60;10.70;;;;;;;4.39;80.19;100774.23;666139;1274;139137;-80
2024/04/21 05:24:36;;;;;;;171.70;49.70;;;;;;;5.04;79.89;100777.05;667815;1261;139061;-81
2024/04/21 05:39:39;;;;;;;203.10;57.00;;;;;;;5.48;78.95;100796.06;667317;1276;138982;-80
2024/04/21 05:54:43;;;;;;;83.40;26.50;;;;;;;5.82;78.41;100814.89;666334;1268;139960;-80
2024/04/21 06:09:46;;;;;;;20.70;10.40;;;;;;;6.48;77.47;100823.95;666487;1267;139923;-80
2024/04/21 06:24:49;;;;;;;15.50;7.70;;;;;;;10.24;75.78;100819.48;664852;1264;139552;-81
2024/04/21 06:39:52;;;;;;;10.10;6.60;;;;;;;13.80;67.25;100817.09;666358;1265;138809;-80
2024/04/21 06:54:56;;;;;;;8.10;4.60;;;;;;;15.09;61.16;100833.01;671078;1261;138981;-79
2024/04/21 07:09:59;;;;;;;8.30;4.30;;;;;;;14.37;56.52;100834.76;670480;1261;138830;-80
2024/04/21 07:25:03;;;;;;;8.00;3.70;;;;;;;13.44;56.47;100826.52;671429;1271;139500;-79
2024/04/21 07:40:20;;;;;;;7.10;5.40;;;;;;;14.46;54.02;100811.23;668016;1260;138631;-79
2024/04/21 07:55:24;;;;;;;3.90;2.30;;;;;;;16.31;51.15;100808.92;668538;1270;138509;-79
2024/04/21 08:10:27;;;;;;;13.60;6.70;;;;;;;16.00;47.93;100809.84;675900;1257;138208;-82
2024/04/21 08:25:31;;;;;;;7.40;4.40;;;;;;;15.87;47.72;100811.91;677110;1261;139435;-82
2024/04/21 08:40:38;;;;;;;7.60;4.40;;;;;;;15.17;48.29;100813.92;675997;1258;138494;-79
2024/04/21 08:55:51;;;;;;;6.30;4.10;;;;;;;16.09;46.86;100818.10;675237;1260;138841;-80
2024/04/21 09:10:56;;;;;;;10.20;4.90;;;;;;;15.81;46.34;100813.53;673756;1258;139792;-79
2024/04/21 09:25:59;;;;;;;7.50;4.60;;;;;;;17.11;46.44;100813.48;672279;1257;139366;-79
2024/04/21 09:41:05;;;;;;;39.20;18.00;;;;;;;17.45;45.31;100815.98;672324;1259;139698;-82
2024/04/21 09:56:10;;;;;;;15.00;9.20;;;;;;;17.18;44.96;100808.50;671287;1257;138417;-80
2024/04/21 10:11:13;;;;;;;6.00;3.10;;;;;;;17.11;44.61;100799.30;670895;1262;141603;-79
2024/04/21 10:26:17;;;;;;;6.70;4.80;;;;;;;15.87;44.76;100792.55;671171;1263;140128;-81
2024/04/21 10:41:21;;;;;;;3.50;2.60;;;;;;;14.80;46.15;100788.83;669631;1259;138640;-78
2024/04/21 10:56:24;;;;;;;4.90;4.40;;;;;;;14.15;47.28;100784.30;668495;1270;139727;-80
2024/04/21 11:11:28;;;;;;;6.20;4.20;;;;;;;13.81;47.91;100788.04;669738;1257;138547;-80
2024/04/21 11:26:32;;;;;;;9.30;5.70;;;;;;;13.30;48.29;100797.06;672890;1263;138071;-80
2024/04/21 11:41:35;;;;;;;18.50;10.00;;;;;;;12.56;49.57;100807.02;671019;1264;138441;-80
2024/04/21 11:56:38;;;;;;;3.90;3.10;;;;;;;12.17;49.88;100814.43;670406;1263;138427;-79
2024/04/21 12:11:41;;;;;;;7.00;4.00;;;;;;;12.06;49.81;100818.48;670080;1263;138973;-79
2024/04/21 12:26:45;;;;;;;13.30;6.00;;;;;;;12.01;50.05;100814.22;670662;1263;138227;-80
2024/04/21 12:41:48;;;;;;;7.00;4.10;;;;;;;12.32;49.92;100821.92;675564;1260;139612;-78
2024/04/21 12:56:52;;;;;;;7.70;4.50;;;;;;;11.91;50.84;100829.73;671726;1263;138523;-81
2024/04/21 13:11:55;;;;;;;7.60;5.50;;;;;;;11.44;51.71;100835.25;670703;1273;139268;-82
2024/04/21 13:26:58;;;;;;;6.50;3.40;;;;;;;11.48;52.15;100827.23;667147;1265;137982;-80
2024/04/21 13:42:01;;;;;;;6.70;4.00;;;;;;;11.22;51.74;100828.98;666969;1273;138429;-79
2024/04/21 13:57:04;;;;;;;10.90;4.50;;;;;;;11.17;52.18;100829.92;666505;1261;172324;-79
2024/04/21 14:12:08;;;;;;;7.40;4.60;;;;;;;10.87;52.68;100835.63;667689;1263;138425;-79
2024/04/21 14:27:12;;;;;;;78.40;32.90;;;;;;;10.55;52.39;100843.23;667428;1259;138245;-81
2024/04/21 14:42:16;;;;;;;67.20;30.10;;;;;;;10.87;52.80;100843.70;670694;1263;138308;-79
2024/04/21 14:57:21;;;;;;;15.70;9.00;;;;;;;10.83;52.39;100841.27;671834;1257;138831;-80
2024/04/21 15:12:24;;;;;;;8.40;4.30;;;;;;;10.72;52.69;100844.77;675543;1259;137972;-80
2024/04/21 15:27:29;;;;;;;15.90;8.00;;;;;;;10.95;51.88;100844.27;673847;1262;138946;-79
2024/04/21 15:42:32;;;;;;;10.50;5.30;;;;;;;10.63;52.09;100848.77;674765;1262;139556;-80
2024/04/21 15:57:35;;;;;;;26.10;12.70;;;;;;;10.23;52.40;100859.02;673959;1263;138778;-79
2024/04/21 16:12:39;;;;;;;20.70;12.80;;;;;;;9.33;53.19;100857.94;673043;1262;138761;-81
2024/04/21 16:27:46;;;;;;;29.90;15.40;;;;;;;8.68;54.66;100869.92;674441;1257;138485;-78
2024/04/21 16:42:50;;;;;;;13.90;6.70;;;;;;;8.41;55.27;100870.02;673989;1262;138759;-79
2024/04/21 16:57:55;;;;;;;25.70;11.10;;;;;;;8.07;55.84;100879.13;671631;1263;139612;-79
2024/04/21 17:12:59;;;;;;;48.50;26.50;;;;;;;7.76;56.49;100894.79;673172;1260;138381;-81
2024/04/21 17:28:05;;;;;;;21.50;9.60;;;;;;;7.52;57.05;100902.41;674169;1274;141000;-80
2024/04/21 17:43:08;;;;;;;27.80;13.30;;;;;;;7.30;58.37;100915.88;677756;1262;138759;-80
2024/04/21 17:58:12;;;;;;;40.90;18.70;;;;;;;7.09;59.10;100920.98;677734;1260;138850;-80
2024/04/21 18:13:18;;;;;;;17.50;6.80;;;;;;;6.84;59.84;100924.13;673366;1262;138066;-80
2024/04/21 18:28:21;;;;;;;56.60;15.20;;;;;;;6.64;60.49;100936.46;672724;1263;139323;-80
2024/04/21 18:43:27;;;;;;;29.40;12.10;;;;;;;6.53;60.70;100935.08;675582;1260;139985;-79
2024/04/21 18:58:31;;;;;;;46.80;15.90;;;;;;;6.39;61.41;100932.80;676321;1262;139033;-79
2024/04/21 19:13:35;;;;;;;46.90;16.20;;;;;;;6.25;61.45;100928.73;675449;1264;139587;-79
2024/04/21 19:28:40;;;;;;;29.60;20.20;;;;;;;6.00;61.31;100917.84;674991;1263;139054;-80
2024/04/21 19:43:45;;;;;;;46.20;18.90;;;;;;;5.78;61.38;100904.70;671763;1262;138791;-80
2024/04/21 19:58:48;;;;;;;71.60;20.00;;;;;;;5.82;61.18;100905.33;673464;1263;140200;-81
2024/04/21 20:13:51;;;;;;;24.90;12.50;;;;;;;5.78;61.48;100904.90;669586;1262;140041;-81
2024/04/21 20:28:54;;;;;;;24.00;9.40;;;;;;;5.75;61.18;100905.57;671175;1267;139075;-81
2024/04/21 20:43:57;;;;;;;26.70;9.10;;;;;;;5.58;61.85;100904.96;671515;1262;138838;-81
2024/04/21 20:59:01;;;;;;;45.10;15.40;;;;;;;5.51;62.66;100903.98;673847;1263;138755;-80
2024/04/21 21:14:04;;;;;;;37.20;12.40;;;;;;;5.57;63.30;100899.31;671263;1262;139300;-80
2024/04/21 21:29:07;;;;;;;27.80;12.40;;;;;;;5.48;63.03;100895.30;668127;1263;139340;-81
2024/04/21 21:44:10;;;;;;;15.30;6.60;;;;;;;5.42;63.60;100888.54;667685;1262;139130;-80
2024/04/21 21:59:14;;;;;;;21.40;8.20;;;;;;;5.42;63.83;100889.73;669087;1269;138880;-80
2024/04/21 22:14:17;;;;;;;12.80;4.80;;;;;;;5.40;64.58;100883.05;668707;1258;138891;-79
2024/04/21 22:29:20;;;;;;;10.20;5.30;;;;;;;5.34;64.40;100873.00;667660;1259;139433;-80
2024/04/21 22:44:23;;;;;;;19.00;6.90;;;;;;;5.27;64.36;100859.70;668767;1271;138783;-80
2024/04/21 22:59:27;;;;;;;11.40;5.50;;;;;;;5.25;65.40;100839.84;669261;1263;139491;-81
2024/04/21 23:14:31;;;;;;;4.50;3.80;;;;;;;5.25;65.33;100816.96;667155;1273;138827;-80
2024/04/21 23:29:36;;;;;;;8.10;4.60;;;;;;;5.13;65.52;100805.35;667251;1260;138589;-79
2024/04/21 23:44:39;;;;;;;7.40;4.00;;;;;;;5.13;66.28;100792.17;667250;1264;138950;-80
2024/04/21 23:59:42;;;;;;;10.10;3.80;;;;;;;5.05;66.92;100794.00;666624;1271;139608;-80
